Alma, AR

1:00 AM CST on December 22, 2014 (GMT -0600)
Azure Hills Estates | Change Station
CLOSE
Current Station
Personal Weather Station
Location: Van Buren, AR
Elevation: 612 ft
Nearby Weather Stations

Elev 612 ft 35.46 °N, 94.36 °W | Updated 2 seconds ago

Overcast
Overcast
44.7 °F
Feels Like 45 °F
N
0.0
Wind Variable Wind from ENE
Gusts 4.0 mph

Today
High -- | Low -- °F
--% Chance of Precip.
Yesterday
High -- | Low -- °F
Precip. -- in
7:22 AM 5:08 PM
New Moon, 0% visible
Pressure 29.77 in
Visibility 4.0 miles
Clouds Mostly Cloudy 500 ft
Overcast 1900 ft
Windchill 45 °F
Dew Point 44 °F
Humidity 96%
Rainfall 0.00 in
Snow Depth Not available.
UV 0 out of 12
Pollen 6.40 out of 12
Air Quality Not available.
Flu Activity Not available.
METAR KFSM 220653Z AUTO 03005KT 4SM BR BKN005 OVC019 07/06 A2977 RMK AO2 SLP079 T00720061

More Conditions Fewer Conditions

Pressure 29.77 in
Visibility 4.0 miles
Clouds Mostly Cloudy 500 ft
Overcast 1900 ft
Windchill 45 °F
Dew Point 44 °F
Humidity 96%
Rainfall 0.00 in
Snow Depth Not available.
UV 0 out of 12
Pollen 6.40 out of 12
Air Quality Not available.
Flu Activity Not available.
METAR KFSM 220653Z AUTO 03005KT 4SM BR BKN005 OVC019 07/06 A2977 RMK AO2 SLP079 T00720061

More Conditions Fewer Conditions

Nowcast | as of 12:52 am CST on December 22, 2014

At 12:52 am...National Weather Service Doppler radars continued to detect a large area of drizzle across portions of eastern Oklahoma and western Arkansas. Most reports of drizzle were north of Interstate 40. Through 3:00 am...light drizzle will continue across eastern Oklahoma and western Arkansas. Precipitation amounts will be very light...with between a trace to a couple hundredths of an inch expected. With temperatures well above freezing...minor visibility reductions in the heaviest drizzle should be the only travel impacts.

×

10-Day Weather Forecast

Almanac

Astronomy

Dec. 22, 2014 Rise Set
Actual Time
Civil Twilight
Nautical Twilight
Astronomical Twilight
Moon
Length of Visible Light
Length of Day
Tomorrow will be .
, % of the Moon is Illuminated

Today's Extremes

State Highs State Lows

Community

WunderPhotos

Upload Photos

1,779,560 photos uploaded!

WunderBlogs® & News

Nearby

Air Quality

  Air Quality AQ Index Pollutant
Not available.

Snow Depth

Station Depth Elevation

Earthquake Activity

City Distance Mag. Time & Date
Minimum magnitude displayed is 2.5.

Coastal Water Temperatures

Place Temperature

Nearby Weather Stations